Language selection

Features

My Weather Profile Weather Topics  | 

East Labrador Sea: Past 24 Hour Conditions

 

Nain Airport

04:00 PM AST 06 December 2019
Disclaimer

This table is a summary of hourly weather conditions for the past 24 hours.
Please note that these observations might not always be representative of weather conditions over their associated marine area.

Date / Time
(AST)
Wind(knots) Conditions Visibility(km) Pressure(kPa) Air tempC) Relative humidity(%) Dew pointC) Wind Chill
06 December 2019
16:00 WNW 3 Light Snow 3 99.7 -5 90 -7 -8
15:00 WNW 6 Light Snow 8 99.7 -5 88 -7 -10
14:00 WNW 12 Light Snowshower 23 99.6 -5 86 -7 -12
13:00 WNW 12 Light Snowshower 24 99.6 -5 86 -7 -12
12:00 WNW 10 Light Snowshower 24 99.7 -5 80 -8 -11
11:00 WNW 9 Light Snowshower 24 99.7 -5 76 -8 -11
10:00 W 7 Mostly Cloudy 24 99.7 -5 71 -10 -10
9:00 W 7 Mostly Cloudy 24 99.7 -6 76 -9 -11
8:00 NW 11 Mostly Cloudy 24 99.7 -5 75 -9 -12
7:00 NW 8 Mostly Cloudy 24 99.7 -5 75 -9 -11
6:00 W 8 Mostly Cloudy 24 99.7 -6 73 -10 -12
5:00 WNW 10 Mostly Cloudy 24 99.7 -6 73 -10 -13
4:00 N/A N/A N/A 99.7 -8 70 -12 *
3:00 N/A N/A N/A 99.7 -8 72 -12 *
2:00 N/A N/A N/A 99.7 -7 65 -13 *
1:00 N/A N/A N/A 99.7 -8 69 -13 *
0:00 N/A N/A N/A 99.7 -8 69 -12 *
05 December 2019
23:00 N/A N/A N/A 99.8 -8 73 -12 *
22:00 N/A N/A N/A 99.8 -8 70 -13 *
21:00 N/A N/A N/A 99.8 -8 74 -12 *
20:00 SW 4 Cloudy 24 99.8 -7 63 -13 -11
19:00 SSW 5 Mostly Cloudy 24 99.9 -7 69 -12 -11
18:00 W 4 Cloudy 24 99.8 -6 70 -11 -9
17:00 WNW 5 Mostly Cloudy 24 99.9 -6 70 -10 -10
16:00 WSW 2 Mostly Cloudy 24 99.9 -6 74 -10 -7

Zoom-in to make a selection

Map of Atlantic - Labrador marine weather areas Kangiqsualujjuaq Airport Cape Kakkiviak Cape Kiglapait Cartwright Airport CFB Goose Bay Hopedale Mary's Harbour Nain Airport Makkovik Airport Saglek Tukialik Bay
Legend:
buoy Buoy
land station Land Station

Atlantic - Labrador Area

Another Region

What we are doing

Date modified: